Terminal Aerodrome Forecast
Issued by NWS

Home | Current Version | Previous Version | Text Only | Print | Product List | Glossary On
Versions: 1 2 3 4 5 6 7 8 9 10 11 12
000
FTUS45 KTFX 051126
TAFHVR
TAF
KHVR 051126Z 0512/0612 22008KT P6SM SCT150
     FM051500 24010KT P6SM SCT050 BKN080 PROB30 0522/0602 VRB15G30KT
      TSRA BKN050CB
     FM060300 14008KT P6SM VCSH SCT040 OVC080
     FM060900 22005KT P6SM FEW080 SCT200=

USA.gov is the U.S. government's official web portal to all federal, state and local government web resources and services.